logo
Search for airport 
image banner adimage banner adimage banner ad
image banner ad

FABOLA - Boland Crop

Located in , South Africa

ICAO - , IATA -

Data provided by Airmate  

General information

Coordinates: S33°20'53" E18°41'50"
Elevation is 662 feet MSL.
 
View others Airports in Western Cape

Operational data

Special qualification required
Current time UTC:
Current local time:
METAR: FALW 290700Z AUTO 35003KT //// // ////// 12/05 Q1012
View NOTAMs / SUP AIP / TFR affecting this airport [VIEW]
Communications frequencies: [VIEW]

Runways:

RWY identifierQFULength (ft)Width (ft)SurfaceLDA (ft)
18162°275639ASPH
36342°275639ASPH

Airport contact information

Address: South Africa

Satellite view of FABOLA